Time;durP1;ratioP1;P1;durP2;ratioP2;P2;SDS_P1;SDS_P2;PMS_P1;PMS_P2;Temp;Humidity;BMP_temperature;BMP_pressure;BME280_temperature;BME280_humidity;BME280_pressure;Samples;Min_cycle;Max_cycle;Signal;HPM_P1;HPM_P2
2021/03/16 00:02:17;;;;;;;37.38;9.70;;;5.30;99.90;;;;;;5090055;28;20022;-57
2021/03/16 00:04:42;;;;;;;43.60;10.18;;;5.40;99.90;;;;;;5091290;28;20019;-56
2021/03/16 00:07:08;;;;;;;49.58;10.10;;;5.40;99.90;;;;;;5091144;28;20020;-55
2021/03/16 00:09:34;;;;;;;31.85;8.88;;;5.40;99.90;;;;;;5083251;28;20028;-57
2021/03/16 00:12:00;;;;;;;38.33;9.70;;;5.40;99.90;;;;;;5088575;28;20023;-56
2021/03/16 00:14:25;;;;;;;36.97;9.10;;;5.40;99.90;;;;;;5089127;28;20043;-55
2021/03/16 00:16:51;;;;;;;44.53;8.27;;;5.40;99.90;;;;;;5090908;28;20465;-53
2021/03/16 00:19:20;;;;;;;46.40;10.05;;;5.50;99.90;;;;;;5090788;28;20457;-55
2021/03/16 00:21:45;;;;;;;36.78;8.48;;;5.50;99.90;;;;;;5090039;28;20666;-55
2021/03/16 00:24:11;;;;;;;48.13;8.38;;;5.60;99.90;;;;;;5091242;28;20042;-55
2021/03/16 00:26:37;;;;;;;39.78;7.30;;;5.60;99.90;;;;;;5081833;28;20078;-52
2021/03/16 00:29:03;;;;;;;43.63;9.27;;;5.60;99.90;;;;;;5079882;28;20393;-55
2021/03/16 00:31:28;;;;;;;40.88;7.78;;;5.60;99.90;;;;;;5091016;28;20028;-52
2021/03/16 00:33:54;;;;;;;39.63;7.47;;;5.60;99.90;;;;;;5090390;28;20447;-55
2021/03/16 00:36:20;;;;;;;40.30;8.02;;;5.70;99.90;;;;;;5091112;28;20073;-55
2021/03/16 00:38:45;;;;;;;49.35;7.68;;;5.70;99.90;;;;;;5089718;28;20024;-56
2021/03/16 00:41:11;;;;;;;30.77;7.55;;;5.70;99.90;;;;;;5087535;28;20390;-54
2021/03/16 00:43:36;;;;;;;36.40;6.63;;;5.70;99.90;;;;;;5081692;28;20371;-56
2021/03/16 00:46:02;;;;;;;35.15;7.63;;;5.70;99.90;;;;;;5090472;28;20020;-56
2021/03/16 00:48:28;;;;;;;33.92;8.68;;;5.80;99.90;;;;;;5091184;28;20028;-55
2021/03/16 00:50:54;;;;;;;47.53;7.38;;;5.80;99.90;;;;;;5090806;28;20024;-56
2021/03/16 00:53:20;;;;;;;50.63;10.95;;;5.80;99.90;;;;;;5091081;28;20082;-54
2021/03/16 00:55:45;;;;;;;45.10;10.73;;;5.80;99.90;;;;;;5087383;28;20028;-57
2021/03/16 00:58:11;;;;;;;43.75;6.82;;;5.80;99.90;;;;;;5079848;28;20326;-56
2021/03/16 01:00:37;;;;;;;25.92;5.90;;;5.80;99.90;;;;;;5087602;28;20020;-54
2021/03/16 01:03:03;;;;;;;42.40;6.35;;;5.80;99.90;;;;;;5090870;28;20028;-54
2021/03/16 01:05:28;;;;;;;36.63;7.07;;;5.90;99.90;;;;;;5090985;28;20034;-55
2021/03/16 01:07:54;;;;;;;46.13;8.95;;;5.90;99.90;;;;;;5088407;28;20024;-56
2021/03/16 01:10:22;;;;;;;37.10;6.82;;;5.90;99.90;;;;;;5086882;28;20060;-53
2021/03/16 01:12:48;;;;;;;54.20;8.48;;;5.90;99.90;;;;;;5087980;28;20028;-56
2021/03/16 01:15:14;;;;;;;39.90;8.02;;;5.90;99.90;;;;;;5088674;28;20401;-54
2021/03/16 01:17:40;;;;;;;24.13;5.97;;;5.90;99.90;;;;;;5090186;28;20028;-56
2021/03/16 01:20:12;;;;;;;36.30;6.57;;;5.90;99.90;;;;;;5090230;28;20370;-53
2021/03/16 01:22:37;;;;;;;46.30;6.43;;;5.90;99.90;;;;;;5090222;28;20024;-55
2021/03/16 01:25:04;;;;;;;26.88;5.07;;;5.90;99.90;;;;;;5090893;28;20081;-57
2021/03/16 01:27:29;;;;;;;32.40;6.38;;;5.90;99.90;;;;;;5093209;28;20043;-55
2021/03/16 01:29:55;;;;;;;34.30;6.85;;;5.90;99.90;;;;;;5090540;28;20024;-55
2021/03/16 01:32:20;;;;;;;29.02;6.82;;;5.90;99.90;;;;;;5092087;28;20102;-53
2021/03/16 01:34:46;;;;;;;33.88;7.57;;;5.90;99.90;;;;;;5093129;28;20028;-55
2021/03/16 01:37:11;;;;;;;33.35;5.65;;;5.90;99.90;;;;;;5093582;28;20385;-57
2021/03/16 01:39:37;;;;;;;28.85;5.28;;;5.90;99.90;;;;;;5091995;28;20043;-55
2021/03/16 01:42:02;;;;;;;31.17;4.40;;;5.90;99.90;;;;;;5091255;28;20070;-54
2021/03/16 01:44:28;;;;;;;35.72;5.72;;;5.90;99.90;;;;;;5093078;28;20065;-54
2021/03/16 01:46:54;;;;;;;23.27;4.05;;;5.90;99.90;;;;;;5092724;28;20389;-53
2021/03/16 01:49:19;;;;;;;24.23;6.38;;;5.90;99.90;;;;;;5093393;28;20039;-52
2021/03/16 01:51:45;;;;;;;34.88;6.30;;;5.90;99.90;;;;;;5093181;28;20029;-51
2021/03/16 01:54:12;;;;;;;33.35;5.80;;;5.90;99.90;;;;;;5093849;28;20024;-55
2021/03/16 01:56:38;;;;;;;32.55;5.15;;;5.90;99.90;;;;;;5086920;28;20508;-55
2021/03/16 01:59:04;;;;;;;31.25;5.75;;;5.90;99.90;;;;;;5082986;28;20111;-51
2021/03/16 02:01:30;;;;;;;32.20;5.00;;;5.90;99.90;;;;;;5092332;28;20048;-52
2021/03/16 02:03:56;;;;;;;34.20;6.03;;;5.90;99.90;;;;;;5091855;28;20030;-52
2021/03/16 02:07:00;;;;;;;28.88;5.97;;;5.90;99.90;;;;;;5093335;28;20031;-54
2021/03/16 02:09:38;;;;;;;24.38;4.75;;;5.90;99.90;;;;;;5019923;28;20123;-56
2021/03/16 02:12:40;;;;;;;30.38;4.38;;;5.90;99.90;;;;;;5084237;28;20071;-52
2021/03/16 02:15:22;;;;;;;25.48;6.22;;;5.90;99.90;;;;;;5006645;28;20037;-56
2021/03/16 02:17:54;;;;;;;29.45;4.68;;;5.90;99.90;;;;;;5081575;28;20036;-55
2021/03/16 02:20:44;;;;;;;25.75;4.07;;;5.90;99.90;;;;;;5074501;28;20059;-56
2021/03/16 02:23:14;;;;;;;27.02;4.50;;;5.90;99.90;;;;;;5092551;28;20024;-56
2021/03/16 02:26:13;;;;;;;31.02;3.90;;;5.90;99.90;;;;;;5091740;28;20073;-53
2021/03/16 02:28:47;;;;;;;28.20;4.30;;;5.90;99.90;;;;;;5087620;28;20034;-55
2021/03/16 02:31:15;;;;;;;29.83;5.07;;;6.00;99.90;;;;;;5073977;28;20058;-55
2021/03/16 02:33:43;;;;;;;25.48;3.50;;;5.90;99.90;;;;;;5093513;28;20038;-53
2021/03/16 02:36:12;;;;;;;27.27;4.18;;;6.00;99.90;;;;;;5092126;28;20032;-55
2021/03/16 02:38:43;;;;;;;32.67;4.00;;;6.00;99.90;;;;;;5090171;28;20020;-53
2021/03/16 02:41:11;;;;;;;28.33;3.65;;;6.00;99.90;;;;;;5089305;28;20062;-56
2021/03/16 02:43:37;;;;;;;28.38;3.80;;;6.00;99.90;;;;;;5091833;28;20024;-54
2021/03/16 02:46:07;;;;;;;27.60;4.20;;;6.00;99.90;;;;;;5091087;28;20030;-55
2021/03/16 02:48:35;;;;;;;27.38;5.32;;;6.00;99.90;;;;;;5091845;28;20081;-56
2021/03/16 02:51:01;;;;;;;29.15;4.35;;;6.00;99.90;;;;;;5088740;28;20043;-53
2021/03/16 02:53:27;;;;;;;25.73;4.60;;;6.00;99.90;;;;;;5092870;28;20028;-52
2021/03/16 02:55:55;;;;;;;30.98;5.45;;;6.00;99.90;;;;;;5089903;28;20056;-53
2021/03/16 02:58:22;;;;;;;32.67;6.15;;;6.00;99.90;;;;;;5081672;28;20032;-55
2021/03/16 03:00:50;;;;;;;30.25;5.75;;;6.00;99.90;;;;;;5088849;28;20028;-55
2021/03/16 03:03:17;;;;;;;29.50;6.28;;;6.00;99.90;;;;;;5091953;28;20085;-58
2021/03/16 03:05:43;;;;;;;39.15;5.07;;;6.00;99.90;;;;;;5092312;28;20074;-53
2021/03/16 03:08:10;;;;;;;43.58;6.43;;;6.00;99.90;;;;;;5085171;28;20103;-54
2021/03/16 03:10:36;;;;;;;25.20;4.70;;;6.00;99.90;;;;;;5080107;28;20501;-52
2021/03/16 03:13:04;;;;;;;28.05;6.28;;;6.00;99.90;;;;;;5090977;28;20105;-53
2021/03/16 03:15:30;;;;;;;32.72;5.97;;;6.00;99.90;;;;;;5090357;28;20059;-52
2021/03/16 03:17:55;;;;;;;24.63;4.53;;;6.00;99.90;;;;;;5090518;28;20070;-51
2021/03/16 03:20:21;;;;;;;33.63;5.72;;;6.00;99.90;;;;;;5072733;28;20032;-52
2021/03/16 03:23:15;;;;;;;33.70;5.82;;;6.00;99.90;;;;;;5092643;28;20474;-55
2021/03/16 03:25:46;;;;;;;45.45;5.15;;;5.90;99.90;;;;;;5092123;28;20036;-57
2021/03/16 03:28:20;;;;;;;22.52;5.22;;;5.90;99.90;;;;;;5090910;28;20490;-51
2021/03/16 03:30:47;;;;;;;36.35;5.20;;;5.90;99.90;;;;;;5085239;28;20417;-52
2021/03/16 03:33:14;;;;;;;23.52;4.25;;;5.90;99.90;;;;;;5090962;28;20055;-55
2021/03/16 03:35:40;;;;;;;31.42;4.32;;;5.80;99.90;;;;;;5091869;28;20068;-55
2021/03/16 03:38:08;;;;;;;22.10;3.63;;;5.80;99.90;;;;;;5090518;28;20020;-56
2021/03/16 03:40:34;;;;;;;35.63;5.75;;;5.80;99.90;;;;;;5090530;28;20386;-55
2021/03/16 03:43:02;;;;;;;29.42;4.60;;;5.90;99.90;;;;;;5089560;28;20038;-57
2021/03/16 03:45:29;;;;;;;30.20;4.72;;;5.90;99.90;;;;;;5090660;28;20107;-55
2021/03/16 03:47:58;;;;;;;34.03;5.00;;;5.90;99.90;;;;;;5090784;28;20034;-55
2021/03/16 03:50:25;;;;;;;23.25;4.32;;;5.90;99.90;;;;;;5090634;28;20030;-55
2021/03/16 03:52:53;;;;;;;28.75;3.88;;;5.90;99.90;;;;;;5091213;28;20061;-55
2021/03/16 03:55:21;;;;;;;28.77;4.38;;;5.90;99.90;;;;;;5090223;28;20039;-55
2021/03/16 03:57:48;;;;;;;25.27;3.85;;;5.90;99.90;;;;;;5091512;28;20092;-54
2021/03/16 04:00:15;;;;;;;29.92;4.05;;;5.90;99.90;;;;;;5087042;28;20519;-56
2021/03/16 04:02:41;;;;;;;25.10;3.70;;;5.90;99.90;;;;;;5091664;28;20102;-55
2021/03/16 04:05:08;;;;;;;34.80;3.75;;;6.00;99.90;;;;;;5087892;28;20020;-56
2021/03/16 04:07:36;;;;;;;23.00;3.95;;;6.00;99.90;;;;;;5091311;28;20039;-56
2021/03/16 04:10:07;;;;;;;16.45;4.13;;;5.90;99.90;;;;;;5088878;28;20098;-55
2021/03/16 04:12:37;;;;;;;32.63;5.18;;;6.00;99.90;;;;;;5089495;28;20024;-55
2021/03/16 04:15:08;;;;;;;29.70;3.80;;;5.90;99.90;;;;;;5087287;28;20028;-52
2021/03/16 04:17:34;;;;;;;45.97;6.78;;;5.90;99.90;;;;;;5090884;28;20531;-56
2021/03/16 04:20:01;;;;;;;27.55;4.47;;;6.00;99.90;;;;;;5091157;28;20043;-52
2021/03/16 04:22:26;;;;;;;26.63;5.15;;;5.90;99.90;;;;;;5072967;28;20545;-54
2021/03/16 04:24:56;;;;;;;23.02;4.43;;;6.00;99.90;;;;;;5091011;28;20119;-57
2021/03/16 04:27:22;;;;;;;20.35;3.72;;;6.00;99.90;;;;;;5077894;28;20017;-53
2021/03/16 04:29:47;;;;;;;28.48;3.67;;;6.00;99.90;;;;;;5084255;28;20020;-54
2021/03/16 04:32:13;;;;;;;27.23;3.88;;;6.00;99.90;;;;;;5089653;28;20069;-52
2021/03/16 04:34:38;;;;;;;33.20;3.95;;;6.00;99.90;;;;;;5091248;28;20039;-52
2021/03/16 04:37:04;;;;;;;32.80;5.50;;;6.00;99.90;;;;;;5089871;28;20028;-52
2021/03/16 04:39:30;;;;;;;27.23;4.53;;;6.00;99.90;;;;;;5078870;28;21353;-55
2021/03/16 04:41:56;;;;;;;23.10;4.35;;;6.00;99.90;;;;;;5080007;28;20024;-55
2021/03/16 04:44:21;;;;;;;23.20;3.97;;;6.00;99.90;;;;;;5082989;28;20035;-55
2021/03/16 04:46:47;;;;;;;23.90;4.60;;;6.00;99.90;;;;;;5090893;28;20024;-55
2021/03/16 04:49:13;;;;;;;18.63;4.35;;;6.00;99.90;;;;;;5090758;28;20036;-55
2021/03/16 04:51:40;;;;;;;24.33;4.50;;;6.00;99.90;;;;;;5090458;28;20093;-52
2021/03/16 04:54:06;;;;;;;24.02;3.88;;;6.00;99.90;;;;;;5091063;28;20103;-54
2021/03/16 04:56:31;;;;;;;24.25;3.92;;;6.00;99.90;;;;;;5085491;28;20057;-54
2021/03/16 04:58:57;;;;;;;24.65;5.03;;;6.00;99.90;;;;;;5079602;28;20032;-55
2021/03/16 05:01:23;;;;;;;24.88;5.30;;;6.00;99.90;;;;;;5092426;28;20024;-54
2021/03/16 05:03:48;;;;;;;38.17;5.45;;;6.00;99.90;;;;;;5094980;28;20027;-55
2021/03/16 05:06:14;;;;;;;29.90;6.10;;;6.00;99.90;;;;;;5094687;28;20486;-55
2021/03/16 05:08:39;;;;;;;19.70;4.30;;;6.00;99.90;;;;;;5085989;28;20029;-56
2021/03/16 05:11:05;;;;;;;28.85;4.80;;;6.00;99.90;;;;;;5084079;28;20085;-55
2021/03/16 05:13:31;;;;;;;33.95;5.70;;;6.00;99.90;;;;;;5083507;28;20099;-56
2021/03/16 05:15:56;;;;;;;26.48;5.22;;;6.00;99.90;;;;;;5092896;28;20110;-56
2021/03/16 05:18:22;;;;;;;24.30;5.30;;;6.00;99.90;;;;;;5094308;28;20025;-56
2021/03/16 05:20:47;;;;;;;40.65;5.63;;;6.00;99.90;;;;;;5093587;28;20028;-52
2021/03/16 05:23:13;;;;;;;24.55;5.20;;;6.00;99.90;;;;;;5094305;28;20028;-53
2021/03/16 05:25:38;;;;;;;27.83;5.68;;;6.00;99.90;;;;;;5094203;28;20401;-54
2021/03/16 05:28:04;;;;;;;28.75;5.10;;;6.00;99.90;;;;;;5083152;28;21868;-55
2021/03/16 05:30:29;;;;;;;34.70;5.60;;;6.00;99.90;;;;;;5090680;28;20436;-53
2021/03/16 05:32:57;;;;;;;23.00;4.32;;;6.00;99.90;;;;;;5094075;28;20035;-55
2021/03/16 05:35:24;;;;;;;23.25;5.15;;;6.00;99.90;;;;;;5088050;28;20506;-52
2021/03/16 05:37:50;;;;;;;29.27;4.95;;;6.00;99.90;;;;;;5088881;28;20055;-54
2021/03/16 05:40:16;;;;;;;36.58;5.53;;;5.90;99.90;;;;;;5083502;28;20052;-55
2021/03/16 05:42:41;;;;;;;26.05;4.80;;;5.90;99.90;;;;;;5083162;28;20471;-55
2021/03/16 05:45:08;;;;;;;37.22;6.00;;;5.90;99.90;;;;;;5087995;28;20465;-52
2021/03/16 05:47:34;;;;;;;27.30;5.50;;;6.00;99.90;;;;;;5093543;28;20032;-52
2021/03/16 05:50:01;;;;;;;39.08;7.38;;;6.00;99.90;;;;;;5093594;28;20118;-54
2021/03/16 05:52:27;;;;;;;33.35;5.22;;;6.00;99.90;;;;;;5092108;28;20032;-56
2021/03/16 05:54:54;;;;;;;37.45;5.63;;;6.00;99.90;;;;;;5093561;28;20390;-55
2021/03/16 05:57:20;;;;;;;28.23;4.80;;;6.00;99.90;;;;;;5084238;28;20078;-58
2021/03/16 05:59:47;;;;;;;25.02;5.53;;;5.90;99.90;;;;;;5086847;28;20106;-56
2021/03/16 06:02:13;;;;;;;36.15;5.10;;;5.90;99.90;;;;;;5093881;28;20028;-56
2021/03/16 06:04:44;;;;;;;39.20;5.25;;;6.00;99.90;;;;;;5093772;28;20039;-56
2021/03/16 06:07:14;;;;;;;29.50;8.00;;;6.00;99.90;;;;;;5090942;28;20020;-53
2021/03/16 06:09:40;;;;;;;30.35;4.60;;;6.00;99.90;;;;;;5082572;28;20027;-56
2021/03/16 06:12:07;;;;;;;34.97;4.63;;;6.00;99.90;;;;;;5086557;28;20028;-54
2021/03/16 06:14:33;;;;;;;38.42;4.78;;;6.00;99.90;;;;;;5092962;28;20485;-55
2021/03/16 06:16:59;;;;;;;29.92;4.60;;;6.00;99.90;;;;;;5093556;28;20035;-55
2021/03/16 06:19:30;;;;;;;25.25;3.95;;;6.00;99.90;;;;;;5092113;28;20020;-53
2021/03/16 06:22:04;;;;;;;29.95;4.30;;;6.10;99.90;;;;;;5084309;28;20025;-55
2021/03/16 06:24:29;;;;;;;33.58;4.07;;;6.00;99.90;;;;;;5092165;28;20020;-55
2021/03/16 06:26:56;;;;;;;30.10;4.72;;;6.00;99.90;;;;;;5092313;28;20038;-58
2021/03/16 06:29:22;;;;;;;24.42;4.32;;;6.10;99.90;;;;;;5093198;28;20044;-53
2021/03/16 06:31:48;;;;;;;30.88;4.85;;;6.10;99.90;;;;;;5091559;28;20024;-55
2021/03/16 06:34:25;;;;;;;28.45;4.95;;;6.10;99.90;;;;;;5085154;28;20057;-51
2021/03/16 06:36:58;;;;;;;22.90;4.40;;;6.20;99.90;;;;;;5089555;28;20039;-53
2021/03/16 06:39:24;;;;;;;28.55;5.60;;;6.20;99.90;;;;;;5089821;28;20027;-54
2021/03/16 06:41:51;;;;;;;31.88;6.18;;;6.20;99.90;;;;;;5092854;28;20381;-56
2021/03/16 06:44:18;;;;;;;42.10;6.07;;;6.10;99.90;;;;;;5092234;28;20095;-56
2021/03/16 06:46:58;;;;;;;24.60;4.50;;;6.20;99.90;;;;;;5091459;28;20016;-55
2021/03/16 06:49:24;;;;;;;29.65;4.63;;;6.20;99.90;;;;;;5092087;28;20379;-55
2021/03/16 06:51:51;;;;;;;27.77;4.88;;;6.20;99.90;;;;;;5091504;28;20558;-56
2021/03/16 06:54:23;;;;;;;30.52;3.95;;;6.20;99.90;;;;;;5092764;28;20047;-55
2021/03/16 06:57:00;;;;;;;23.63;3.92;;;6.20;99.90;;;;;;5093234;28;20496;-53
2021/03/16 06:59:28;;;;;;;21.90;4.43;;;6.30;99.90;;;;;;5083353;28;20099;-56
2021/03/16 07:01:54;;;;;;;24.35;4.90;;;6.30;99.90;;;;;;5091793;28;20397;-58
2021/03/16 07:04:25;;;;;;;25.33;4.47;;;6.30;99.90;;;;;;5092214;28;20024;-54
2021/03/16 07:06:51;;;;;;;27.73;4.45;;;6.30;99.90;;;;;;5088276;28;20439;-53
2021/03/16 07:09:17;;;;;;;26.90;5.85;;;6.40;99.90;;;;;;5091472;28;20043;-55
2021/03/16 07:11:48;;;;;;;28.60;5.22;;;6.40;99.90;;;;;;5086300;28;20032;-55
2021/03/16 07:14:16;;;;;;;31.13;4.85;;;6.40;99.90;;;;;;5091712;28;20044;-55
2021/03/16 07:16:43;;;;;;;28.10;5.47;;;6.40;99.90;;;;;;5086333;28;20461;-56
2021/03/16 07:19:10;;;;;;;29.30;4.93;;;6.40;99.90;;;;;;5090727;28;20125;-58
2021/03/16 07:21:55;;;;;;;23.83;5.07;;;6.40;99.90;;;;;;5091405;28;20035;-55
2021/03/16 07:24:39;;;;;;;27.83;5.15;;;6.40;99.90;;;;;;5086880;28;20024;-53
2021/03/16 07:27:06;;;;;;;25.95;3.83;;;6.40;99.90;;;;;;5088987;28;20024;-55
2021/03/16 07:29:32;;;;;;;20.02;4.60;;;6.40;99.90;;;;;;5090581;28;20489;-56
2021/03/16 07:32:02;;;;;;;29.00;4.43;;;6.50;99.90;;;;;;5091664;28;20039;-56
2021/03/16 07:34:28;;;;;;;21.90;4.13;;;6.60;99.90;;;;;;5091791;28;20126;-52
2021/03/16 07:36:54;;;;;;;24.52;4.13;;;6.60;99.90;;;;;;5091129;28;20056;-56
2021/03/16 07:39:22;;;;;;;25.42;3.72;;;6.60;99.90;;;;;;5091037;28;20054;-54
2021/03/16 07:41:50;;;;;;;34.33;6.45;;;6.60;99.90;;;;;;5091741;28;20119;-52
2021/03/16 07:44:17;;;;;;;24.10;4.18;;;6.60;99.90;;;;;;5091653;28;20024;-55
2021/03/16 07:46:53;;;;;;;28.52;4.72;;;6.70;99.90;;;;;;5091479;28;20096;-55
2021/03/16 07:49:36;;;;;;;26.30;4.68;;;6.70;99.90;;;;;;5089763;28;20024;-56
2021/03/16 07:52:03;;;;;;;30.67;5.85;;;6.80;99.90;;;;;;5089606;28;20101;-54
2021/03/16 07:54:37;;;;;;;25.30;5.70;;;6.80;99.90;;;;;;5091074;28;20431;-55
2021/03/16 07:57:04;;;;;;;27.33;7.37;;;6.90;99.90;;;;;;5091435;28;20052;-55
2021/03/16 07:59:35;;;;;;;28.50;7.13;;;6.90;99.90;;;;;;5090820;28;20349;-53
2021/03/16 08:02:01;;;;;;;30.85;6.95;;;7.00;99.90;;;;;;5089435;28;20461;-55
2021/03/16 08:04:39;;;;;;;36.78;7.90;;;7.10;99.90;;;;;;5090984;28;20062;-54
2021/03/16 08:07:07;;;;;;;29.95;8.65;;;7.10;99.90;;;;;;5086712;28;20047;-58
2021/03/16 08:09:44;;;;;;;32.95;7.68;;;7.10;99.90;;;;;;5084622;28;20035;-56
2021/03/16 08:12:26;;;;;;;25.40;7.80;;;7.10;99.90;;;;;;5091361;28;20117;-55
2021/03/16 08:14:53;;;;;;;20.75;6.40;;;7.10;99.90;;;;;;5091061;28;20382;-55
2021/03/16 08:17:27;;;;;;;34.42;6.00;;;7.20;99.90;;;;;;5088789;28;20529;-55
2021/03/16 08:19:52;;;;;;;51.60;7.65;;;7.30;99.90;;;;;;5090621;28;20059;-54
2021/03/16 08:22:21;;;;;;;20.02;5.47;;;7.40;99.90;;;;;;5089811;28;20485;-52
2021/03/16 08:24:46;;;;;;;25.35;5.25;;;7.40;99.90;;;;;;5091559;28;20024;-53
2021/03/16 08:27:14;;;;;;;22.55;4.88;;;7.40;99.90;;;;;;5090939;28;20031;-55
2021/03/16 08:29:44;;;;;;;19.65;4.00;;;7.30;99.90;;;;;;5090910;28;20042;-55
2021/03/16 08:32:17;;;;;;;17.02;4.18;;;7.30;99.90;;;;;;5090675;28;20031;-54
2021/03/16 08:34:44;;;;;;;28.88;6.25;;;7.40;99.90;;;;;;5087913;28;20042;-54
2021/03/16 08:37:22;;;;;;;22.05;4.13;;;7.30;99.90;;;;;;5089189;28;20033;-53
2021/03/16 08:39:48;;;;;;;24.05;5.03;;;7.30;99.90;;;;;;5092424;28;20074;-57
2021/03/16 08:42:21;;;;;;;19.83;4.35;;;7.40;99.90;;;;;;5094964;28;20028;-52
2021/03/16 08:44:46;;;;;;;16.27;4.28;;;7.50;99.90;;;;;;5095437;28;20051;-54
2021/03/16 08:47:18;;;;;;;19.13;4.47;;;7.60;99.90;;;;;;5094451;28;20655;-53
2021/03/16 08:49:45;;;;;;;21.42;4.13;;;7.70;99.90;;;;;;5093836;28;20020;-52
2021/03/16 08:52:23;;;;;;;13.30;3.50;;;7.80;99.90;;;;;;5094226;28;20378;-55
2021/03/16 08:54:50;;;;;;;13.23;2.75;;;7.70;99.90;;;;;;5095027;28;20036;-54
2021/03/16 08:57:26;;;;;;;12.80;3.55;;;7.70;99.90;;;;;;5095098;28;20028;-53
2021/03/16 08:59:54;;;;;;;19.42;3.40;;;7.60;99.90;;;;;;5075752;28;20058;-54
2021/03/16 09:02:31;;;;;;;12.85;3.65;;;7.50;99.90;;;;;;5092048;28;20043;-57
2021/03/16 09:04:58;;;;;;;20.83;4.10;;;7.60;99.90;;;;;;5088673;28;20024;-56
2021/03/16 09:07:28;;;;;;;16.17;2.92;;;7.70;99.90;;;;;;5094072;28;20047;-56
2021/03/16 09:10:18;;;;;;;14.82;3.38;;;7.70;99.90;;;;;;5089588;28;20115;-55
2021/03/16 09:12:46;;;;;;;22.90;4.53;;;7.80;99.90;;;;;;5094447;28;20047;-57
2021/03/16 09:15:19;;;;;;;13.50;5.28;;;8.00;99.90;;;;;;5092711;28;20111;-51
2021/03/16 09:17:51;;;;;;;19.85;4.70;;;8.10;99.90;;;;;;5093969;28;20020;-55
2021/03/16 09:20:16;;;;;;;25.60;5.15;;;8.10;99.90;;;;;;5090571;28;20025;-56
2021/03/16 09:22:45;;;;;;;14.48;3.72;;;8.20;99.90;;;;;;5093729;28;20557;-51
2021/03/16 09:25:11;;;;;;;18.77;3.85;;;8.30;99.90;;;;;;5094693;28;20378;-54
2021/03/16 09:27:39;;;;;;;13.30;4.35;;;8.30;99.90;;;;;;5094354;28;20024;-55
2021/03/16 09:30:07;;;;;;;16.42;3.55;;;8.30;99.90;;;;;;5093783;28;20103;-55
2021/03/16 09:32:32;;;;;;;18.30;2.95;;;8.20;99.90;;;;;;5089947;28;20017;-52
2021/03/16 09:34:59;;;;;;;27.00;3.63;;;8.20;99.90;;;;;;5093301;28;20020;-54
2021/03/16 09:37:24;;;;;;;16.48;4.43;;;8.20;99.90;;;;;;5093038;28;20028;-59
2021/03/16 09:39:55;;;;;;;18.92;4.57;;;8.20;99.90;;;;;;5088128;28;20040;-55
2021/03/16 09:42:51;;;;;;;19.38;3.53;;;8.20;99.90;;;;;;5093884;28;20043;-54
2021/03/16 09:45:26;;;;;;;22.75;3.40;;;8.00;99.90;;;;;;5075888;28;20075;-55
2021/03/16 09:47:54;;;;;;;22.30;3.75;;;7.80;99.90;;;;;;5074582;28;20032;-57
2021/03/16 09:50:38;;;;;;;22.67;3.65;;;7.70;99.90;;;;;;5086856;28;20032;-55
2021/03/16 09:53:07;;;;;;;12.63;3.10;;;7.70;99.90;;;;;;5093023;28;20034;-54
2021/03/16 09:55:33;;;;;;;19.48;3.72;;;7.70;99.90;;;;;;5093638;28;20054;-52
2021/03/16 09:58:00;;;;;;;17.50;4.72;;;7.90;99.90;;;;;;5093333;28;20024;-56
2021/03/16 10:00:28;;;;;;;19.63;3.97;;;8.20;99.90;;;;;;5092714;28;20098;-57
2021/03/16 10:03:08;;;;;;;17.55;4.07;;;8.30;99.90;;;;;;5092483;28;20057;-55
2021/03/16 10:05:34;;;;;;;26.73;4.70;;;8.40;99.90;;;;;;5092697;28;20498;-55
2021/03/16 10:08:00;;;;;;;18.60;3.03;;;8.40;99.90;;;;;;5093209;28;20130;-56
2021/03/16 10:10:31;;;;;;;17.50;2.83;;;8.30;99.90;;;;;;5092547;28;20085;-51
2021/03/16 10:13:02;;;;;;;10.43;2.78;;;8.30;99.90;;;;;;5092985;28;20110;-57
2021/03/16 10:15:30;;;;;;;17.05;3.35;;;8.50;99.90;;;;;;5092917;28;20120;-54
2021/03/16 10:18:01;;;;;;;19.58;3.83;;;8.30;99.90;;;;;;5092515;28;20606;-53
2021/03/16 10:20:30;;;;;;;21.65;2.90;;;8.10;99.90;;;;;;5092020;28;20040;-51
2021/03/16 10:22:59;;;;;;;17.83;3.30;;;8.20;99.90;;;;;;5092952;28;20020;-57
2021/03/16 10:25:27;;;;;;;14.02;3.33;;;8.20;99.90;;;;;;5088819;28;20032;-52
2021/03/16 10:28:00;;;;;;;27.23;4.35;;;8.20;99.90;;;;;;5092299;28;20024;-55
2021/03/16 10:30:45;;;;;;;20.02;3.85;;;8.20;99.90;;;;;;5092506;28;20020;-55
2021/03/16 10:33:12;;;;;;;18.83;4.05;;;8.40;99.90;;;;;;5092159;28;20051;-57
2021/03/16 10:35:40;;;;;;;24.27;5.15;;;8.40;99.90;;;;;;5092273;28;20020;-57
2021/03/16 10:38:07;;;;;;;19.05;3.90;;;8.40;99.90;;;;;;5089615;28;20024;-57
2021/03/16 10:40:34;;;;;;;24.30;3.90;;;8.40;99.90;;;;;;5091903;28;20025;-58
2021/03/16 10:42:59;;;;;;;17.02;2.85;;;8.60;99.90;;;;;;5092046;28;20023;-55
2021/03/16 10:45:26;;;;;;;16.00;3.00;;;8.70;99.90;;;;;;5091956;28;20039;-53
2021/03/16 10:47:52;;;;;;;15.93;2.80;;;8.70;99.90;;;;;;5092693;28;20035;-54
2021/03/16 10:50:18;;;;;;;16.27;2.60;;;8.80;99.90;;;;;;5088559;28;20478;-54
2021/03/16 10:52:44;;;;;;;11.00;2.25;;;9.10;99.90;;;;;;5083766;28;20070;-55
2021/03/16 10:55:10;;;;;;;17.70;3.50;;;9.10;99.90;;;;;;5090952;28;20040;-52
2021/03/16 10:57:36;;;;;;;13.73;2.25;;;9.20;99.90;;;;;;5085121;28;20058;-53
2021/03/16 11:00:03;;;;;;;12.48;2.83;;;9.40;99.90;;;;;;5088836;28;20063;-58
2021/03/16 11:02:29;;;;;;;9.35;2.15;;;9.50;99.90;;;;;;5087627;28;20024;-58
2021/03/16 11:04:55;;;;;;;15.90;3.45;;;9.30;99.90;;;;;;5090797;28;20032;-57
2021/03/16 11:07:21;;;;;;;15.52;2.95;;;9.00;99.90;;;;;;5088374;28;20067;-58
2021/03/16 11:09:46;;;;;;;20.88;4.10;;;8.80;99.90;;;;;;5087426;28;20050;-56
2021/03/16 11:12:13;;;;;;;27.25;5.60;;;8.60;99.90;;;;;;5091541;28;20498;-58
2021/03/16 11:14:38;;;;;;;31.98;6.80;;;8.30;99.90;;;;;;5087416;28;20583;-56
2021/03/16 11:17:04;;;;;;;35.67;7.30;;;8.00;99.90;;;;;;5091797;28;20069;-58
2021/03/16 11:19:29;;;;;;;25.60;7.82;;;7.80;99.90;;;;;;5090099;28;20043;-57
2021/03/16 11:21:55;;;;;;;22.90;6.57;;;7.70;99.90;;;;;;5090875;28;20031;-56
2021/03/16 11:24:21;;;;;;;21.92;6.00;;;7.90;99.90;;;;;;5088441;28;20080;-56
2021/03/16 11:26:46;;;;;;;23.70;6.65;;;8.00;99.90;;;;;;5090982;28;20044;-58
2021/03/16 11:29:12;;;;;;;20.52;7.80;;;8.30;99.90;;;;;;5088284;28;20513;-57
2021/03/16 11:31:39;;;;;;;26.33;6.88;;;8.40;99.90;;;;;;5085842;28;20029;-57
2021/03/16 11:34:04;;;;;;;28.30;7.97;;;8.40;99.90;;;;;;5089327;28;20024;-58
2021/03/16 11:36:30;;;;;;;25.30;7.53;;;8.40;99.90;;;;;;5088404;28;20395;-58
2021/03/16 11:38:56;;;;;;;17.30;5.53;;;8.50;99.90;;;;;;5088717;28;20024;-57
2021/03/16 11:41:22;;;;;;;17.23;6.93;;;8.50;99.90;;;;;;5088218;28;20031;-59
2021/03/16 11:43:48;;;;;;;12.48;4.75;;;8.70;99.90;;;;;;5087373;28;20051;-56
2021/03/16 11:46:14;;;;;;;15.15;4.40;;;9.10;99.90;;;;;;5089801;28;20039;-58
2021/03/16 11:48:40;;;;;;;13.75;4.60;;;9.50;99.90;;;;;;5084259;28;20032;-59
2021/03/16 11:51:05;;;;;;;17.17;5.18;;;9.50;99.90;;;;;;5083892;28;20036;-59
2021/03/16 11:53:31;;;;;;;15.90;5.72;;;9.70;99.90;;;;;;5085670;28;20057;-57
2021/03/16 11:56:00;;;;;;;21.15;5.80;;;9.70;99.90;;;;;;5082922;28;20020;-59
2021/03/16 11:58:26;;;;;;;13.38;5.10;;;9.60;99.90;;;;;;5089056;28;20055;-58
2021/03/16 12:00:52;;;;;;;25.67;5.00;;;9.80;99.90;;;;;;5088674;28;20485;-57
2021/03/16 12:03:18;;;;;;;17.88;4.78;;;9.70;99.90;;;;;;5086235;28;20039;-58
2021/03/16 12:05:44;;;;;;;17.63;5.75;;;9.70;99.90;;;;;;5088298;28;20028;-59
2021/03/16 12:08:10;;;;;;;14.90;4.10;;;9.80;99.90;;;;;;5090105;28;20449;-58
2021/03/16 12:10:35;;;;;;;17.60;4.20;;;9.80;99.90;;;;;;5088234;28;20024;-57
2021/03/16 12:13:01;;;;;;;17.50;4.88;;;9.80;99.90;;;;;;5090232;28;20052;-60
2021/03/16 12:15:26;;;;;;;16.10;4.25;;;9.80;99.90;;;;;;5089185;28;20035;-56
2021/03/16 12:17:52;;;;;;;12.77;3.30;;;10.00;99.90;;;;;;5087014;28;20100;-57
2021/03/16 12:20:18;;;;;;;16.63;2.75;;;10.10;99.90;;;;;;5087059;28;20024;-58
2021/03/16 12:22:43;;;;;;;23.65;4.20;;;10.20;99.90;;;;;;5089647;28;20166;-57
2021/03/16 12:25:09;;;;;;;14.30;4.47;;;10.00;99.90;;;;;;5090972;28;20044;-58
2021/03/16 12:27:35;;;;;;;16.55;2.72;;;10.10;99.90;;;;;;5088909;28;20552;-58
2021/03/16 12:30:01;;;;;;;14.38;2.72;;;10.20;99.90;;;;;;5088906;28;20020;-57
2021/03/16 12:32:27;;;;;;;13.75;3.72;;;10.20;99.90;;;;;;5090416;28;20028;-57
2021/03/16 12:34:52;;;;;;;17.83;3.33;;;10.20;99.90;;;;;;5090693;28;20032;-58
2021/03/16 12:37:19;;;;;;;8.88;2.38;;;10.20;99.90;;;;;;5090443;28;20020;-57
2021/03/16 12:39:44;;;;;;;17.02;2.75;;;10.30;99.90;;;;;;5084635;28;20028;-57
2021/03/16 12:42:11;;;;;;;11.73;2.92;;;10.40;99.90;;;;;;5086608;28;20026;-53
2021/03/16 12:44:37;;;;;;;11.15;2.50;;;10.20;99.90;;;;;;5086518;28;20478;-56
2021/03/16 12:47:06;;;;;;;9.50;2.65;;;10.10;99.90;;;;;;5088719;28;20031;-58
2021/03/16 12:49:33;;;;;;;13.30;3.22;;;10.10;99.90;;;;;;5083373;28;20021;-58
2021/03/16 12:51:58;;;;;;;9.50;2.55;;;10.10;99.90;;;;;;5090311;28;20039;-57